West Yellowstone, MT

6:23 AM MDT on April 27, 2017 (GMT -0600)
West Yellowstone | | Change Station
Active Advisory: Winter Weather Advisory

Elev 6650 ft 44.69 °N, 111.12 °W | Updated 13 minutes ago

Mostly Cloudy
Mostly Cloudy
30 °F
Feels Like 25 °F
N
5
Wind Variable Wind from North

Today
High -- | Low -- °F
--% Chance of Precip.
Yesterday
High -- | Low -- °F
Precip. -- in
Pressure 29.61 in
Visibility 10.0 miles
Clouds Few 300 ft
Few 800 ft
Mostly Cloudy 3300 ft
Windchill 25 °F
Dew Point 28 °F
Humidity 93%
Rainfall 0.02 in
Snow Depth Not available.
6:20 AM 8:24 PM
New Moon, 2% visible
METAR KWYS 271210Z AUTO 35004KT 10SM FEW003 FEW008 BKN033 M01/M02 A2961 RMK AO2
Pressure 29.61 in
Visibility 10.0 miles
Clouds Few 300 ft
Few 800 ft
Mostly Cloudy 3300 ft
Windchill 25 °F
Dew Point 28 °F
Humidity 93%
Rainfall 0.02 in
Snow Depth Not available.
6:20 AM 8:24 PM
New Moon, 2% visible
METAR KWYS 271210Z AUTO 35004KT 10SM FEW003 FEW008 BKN033 M01/M02 A2961 RMK AO2

Get Your Daily Forecast Email!

Thanks for signing up!

Be on the lookout for a verification email in your inbox.

You'll start receiving severe weather alerts in your inbox..

×

10-Day Weather Forecast

Almanac

Astronomy

Apr. 27, 2017 Rise Set
Actual Time
Civil Twilight
Nautical Twilight
Astronomical Twilight
Moon
Length of Visible Light
Length of Day
Tomorrow will be .
, % of the Moon is Illuminated

Today's Extremes

State Highs State Lows

Community

WunderPhotos

WunderBlog® & News

Nearby

Air Quality

  Air Quality AQ Index Pollutant
Not available.

Snow Depth

Station Depth Elevation

Earthquake Activity

City Distance Mag. Time & Date
Minimum magnitude displayed is 2.5.

Coastal Water Temperatures

Place Temperature

Stations

Nearby Weather Stations

Station Location Temp. Windchill Dew Point Humidity Wind Precip. Elev Updated Type
                   

Watches & Warnings

Winter Weather Advisory
Issued: 3:26 AM MDT Apr. 27, 2017 – National Weather Service

... Winter Weather Advisory remains in effect
until noon MDT today for elevations above 6000 feet...

* locations: Battle Ridge Pass, Targhee Pass, West Yellowstone,
and Raynolds Pass.

* Timing: periods of snow will continue over the higher elevations
of southwest Mt through this morning.

* Accumulations: new snow accumulations of 1 to 2 inches.

* Hazard elevation: for elevations above 6000 feet.

* Impacts: some roadways will be snow covered and slippery at
times.

Precautionary/preparedness actions...

For specific Road and travel conditions in Montana, dial 5 1 1 .